Time;durP1;ratioP1;P1;durP2;ratioP2;P2;SDS_P1;SDS_P2;PMS_P1;PMS_P2;Temp;Humidity;BMP_temperature;BMP_pressure;BME280_temperature;BME280_humidity;BME280_pressure;Samples;Min_cycle;Max_cycle;Signal;HPM_P1;HPM_P2
2022/02/28 00:01:23;;;;;;;7.70;5.62;;;;;;;-0.03;100.00;102171.61;1737234;81;21149;-85
2022/02/28 00:03:56;;;;;;;8.15;6.30;;;;;;;-0.03;100.00;102172.05;1736917;81;21113;-86
2022/02/28 00:06:24;;;;;;;9.60;5.53;;;;;;;-0.06;100.00;102171.64;1702664;81;21110;-85
2022/02/28 00:08:52;;;;;;;7.67;5.75;;;;;;;-0.08;100.00;102166.11;1736871;82;21019;-84
2022/02/28 00:11:19;;;;;;;7.80;6.00;;;;;;;-0.08;100.00;102166.95;1730806;81;21069;-86
2022/02/28 00:13:46;;;;;;;6.12;5.25;;;;;;;-0.08;100.00;102166.95;1700390;82;21058;-86
2022/02/28 00:16:14;;;;;;;7.00;5.30;;;;;;;-0.09;100.00;102163.96;1737004;82;21039;-86
2022/02/28 00:18:42;;;;;;;7.72;5.17;;;;;;;-0.10;100.00;102167.83;1736969;81;21046;-86
2022/02/28 00:21:11;;;;;;;6.17;4.90;;;;;;;-0.12;100.00;102162.69;1737448;81;21544;-87
2022/02/28 00:23:39;;;;;;;7.00;5.35;;;;;;;-0.15;100.00;102165.28;1737386;81;20999;-86
2022/02/28 00:26:08;;;;;;;6.87;5.12;;;;;;;-0.17;100.00;102156.75;1737248;81;21018;-86
2022/02/28 00:28:38;;;;;;;7.92;5.10;;;;;;;-0.19;100.00;102162.30;1737511;81;21090;-87
2022/02/28 00:31:05;;;;;;;7.53;5.28;;;;;;;-0.21;100.00;102158.48;1737098;81;21117;-87
2022/02/28 00:33:32;;;;;;;7.28;5.00;;;;;;;-0.24;100.00;102158.48;1736948;81;21094;-87
2022/02/28 00:36:01;;;;;;;6.70;5.10;;;;;;;-0.25;100.00;102154.66;1737098;81;21050;-86
2022/02/28 00:38:28;;;;;;;6.55;4.95;;;;;;;-0.26;100.00;102156.80;1737023;81;21128;-86
2022/02/28 00:40:55;;;;;;;6.15;5.00;;;;;;;-0.27;100.00;102156.38;1705550;82;21107;-85
2022/02/28 00:43:22;;;;;;;5.80;4.95;;;;;;;-0.27;100.00;102157.65;1736973;81;21647;-85
2022/02/28 00:45:49;;;;;;;7.85;6.15;;;;;;;-0.29;100.00;102157.67;1737017;82;21031;-85
2022/02/28 00:48:16;;;;;;;7.60;5.58;;;;;;;-0.30;100.00;102161.53;1737447;82;21109;-85
2022/02/28 00:50:43;;;;;;;6.62;5.67;;;;;;;-0.33;100.00;102164.52;1737048;81;21619;-85
2022/02/28 00:53:10;;;;;;;7.62;5.40;;;;;;;-0.34;100.00;102161.97;1682092;82;21038;-87
2022/02/28 00:55:37;;;;;;;9.00;6.35;;;;;;;-0.36;100.00;102157.28;1705852;82;21054;-86
2022/02/28 00:58:07;;;;;;;8.90;6.33;;;;;;;-0.39;100.00;102151.75;1705575;81;21614;-85
2022/02/28 01:00:35;;;;;;;9.88;6.50;;;;;;;-0.43;100.00;102146.20;1749394;81;20994;-86
2022/02/28 01:03:03;;;;;;;7.40;5.92;;;;;;;-0.46;100.00;102159.45;1750985;81;21148;-86
2022/02/28 01:05:30;;;;;;;6.60;5.62;;;;;;;-0.51;100.00;102154.34;1750610;81;21617;-85
2022/02/28 01:07:57;;;;;;;9.00;6.45;;;;;;;-0.55;100.00;102151.39;1723206;81;21014;-87
2022/02/28 01:10:25;;;;;;;9.75;6.87;;;;;;;-0.59;100.00;102150.97;1736300;81;21593;-86
2022/02/28 01:12:53;;;;;;;8.73;7.08;;;;;;;-0.64;100.00;102153.54;1721259;83;21523;-86
2022/02/28 01:15:21;;;;;;;9.05;6.67;;;;;;;-0.68;100.00;102155.70;1718707;81;21086;-88
2022/02/28 01:17:51;;;;;;;8.63;6.62;;;;;;;-0.74;100.00;102154.01;1723306;81;21010;-89
2022/02/28 01:20:19;;;;;;;9.60;7.05;;;;;;;-0.78;100.00;102157.45;1723314;81;21650;-85
2022/02/28 01:22:47;;;;;;;10.78;7.22;;;;;;;-0.83;100.00;102156.17;1751381;81;21535;-85
2022/02/28 01:25:14;;;;;;;9.68;7.55;;;;;;;-0.89;100.00;102163.00;1722781;81;21042;-84
2022/02/28 01:27:41;;;;;;;8.58;7.03;;;;;;;-0.93;100.00;102166.00;1721101;83;21974;-85
2022/02/28 01:30:11;;;;;;;12.05;8.08;;;;;;;-0.98;100.00;102167.28;1720873;83;21037;-85
2022/02/28 01:32:40;;;;;;;10.23;8.03;;;;;;;-1.03;100.00;102163.03;1721483;83;28321;-84
2022/02/28 01:35:09;;;;;;;10.45;7.33;;;;;;;-1.07;100.00;102158.78;1721079;83;21939;-88
2022/02/28 01:37:38;;;;;;;11.03;8.15;;;;;;;-1.11;100.00;102160.50;1721045;83;21046;-84
2022/02/28 01:40:09;;;;;;;9.83;7.35;;;;;;;-1.16;100.00;102169.89;1694313;83;21249;-85
2022/02/28 01:42:36;;;;;;;11.97;7.87;;;;;;;-1.22;100.00;102166.91;1721232;83;20959;-85
2022/02/28 01:45:06;;;;;;;10.48;7.70;;;;;;;-1.28;100.00;102169.03;1721357;83;21519;-85
2022/02/28 01:47:33;;;;;;;12.90;8.03;;;;;;;-1.33;100.00;102172.03;1694600;83;21669;-85
2022/02/28 01:50:00;;;;;;;10.58;7.20;;;;;;;-1.38;100.00;102166.05;1721241;83;21052;-85
2022/02/28 01:52:27;;;;;;;9.43;7.20;;;;;;;-1.45;100.00;102167.78;1720987;83;21150;-85
2022/02/28 01:54:54;;;;;;;10.30;7.53;;;;;;;-1.51;100.00;102163.92;1721246;83;21085;-85
2022/02/28 01:57:21;;;;;;;11.03;7.42;;;;;;;-1.60;100.00;102162.23;1721109;83;21065;-85
2022/02/28 01:59:49;;;;;;;10.40;7.67;;;;;;;-1.67;100.00;102160.52;1721290;83;21084;-85
2022/02/28 02:02:16;;;;;;;8.75;7.08;;;;;;;-1.73;100.00;102164.77;1721099;83;21084;-85
2022/02/28 02:04:43;;;;;;;12.18;7.30;;;;;;;-1.80;100.00;102165.17;1721327;83;21551;-86
2022/02/28 02:07:10;;;;;;;10.32;7.53;;;;;;;-1.86;100.00;102161.34;1721220;83;21046;-84
2022/02/28 02:09:38;;;;;;;10.30;7.28;;;;;;;-1.94;100.00;102160.91;1694206;83;21102;-85
2022/02/28 02:12:06;;;;;;;11.48;8.13;;;;;;;-1.99;100.00;102159.18;1694156;83;21101;-85
2022/02/28 02:14:36;;;;;;;11.43;8.08;;;;;;;-2.07;100.00;102151.09;1721202;83;21063;-88
2022/02/28 02:17:04;;;;;;;10.58;7.55;;;;;;;-2.14;100.00;102157.47;1721016;83;21175;-87
2022/02/28 02:19:33;;;;;;;11.63;7.40;;;;;;;-2.22;100.00;102157.02;1720898;83;21136;-87
2022/02/28 02:22:00;;;;;;;13.58;8.88;;;;;;;-2.25;100.00;102158.72;1716851;83;21482;-87
2022/02/28 02:24:27;;;;;;;9.63;7.28;;;;;;;-2.30;100.00;102152.72;1694584;83;21749;-87
2022/02/28 02:26:54;;;;;;;16.32;9.03;;;;;;;-2.34;100.00;102153.14;1721035;83;21085;-87
2022/02/28 02:29:22;;;;;;;12.03;7.72;;;;;;;-2.37;100.00;102141.66;1721216;83;21142;-89
2022/02/28 02:31:48;;;;;;;11.78;7.60;;;;;;;-2.40;100.00;102143.75;1694163;83;21921;-86
2022/02/28 02:34:15;;;;;;;13.03;7.55;;;;;;;-2.41;100.00;102147.59;1694481;83;21962;-88
2022/02/28 02:36:42;;;;;;;11.45;7.47;;;;;;;-2.44;100.00;102143.73;1720942;83;21054;-87
2022/02/28 02:39:09;;;;;;;10.48;7.72;;;;;;;-2.45;100.00;102143.34;1721314;83;21033;-88
2022/02/28 02:41:37;;;;;;;12.03;7.87;;;;;;;-2.49;100.00;102141.20;1721532;83;22211;-87
2022/02/28 02:44:04;;;;;;;13.80;7.78;;;;;;;-2.52;100.00;102145.00;1721366;83;21940;-88
2022/02/28 02:46:31;;;;;;;12.03;8.50;;;;;;;-2.54;100.00;102142.86;1721138;83;21101;-89
2022/02/28 02:49:04;;;;;;;13.35;9.15;;;;;;;-2.58;100.00;102139.88;1716966;83;21066;-88
2022/02/28 02:51:31;;;;;;;12.23;8.33;;;;;;;-2.60;100.00;102144.11;1694228;83;21053;-87
2022/02/28 02:54:00;;;;;;;11.45;7.60;;;;;;;-2.62;100.00;102149.22;1694399;83;21244;-86
2022/02/28 02:56:27;;;;;;;9.50;7.40;;;;;;;-2.63;100.00;102151.34;1721029;83;21037;-87
2022/02/28 02:58:54;;;;;;;10.40;7.35;;;;;;;-2.65;100.00;102149.63;1720829;83;21081;-89
2022/02/28 03:01:22;;;;;;;11.00;8.35;;;;;;;-2.70;100.00;102152.16;1708208;83;21046;-87
2022/02/28 03:03:49;;;;;;;14.15;8.55;;;;;;;-2.74;100.00;102154.25;1694564;81;21054;-87
2022/02/28 03:06:16;;;;;;;12.40;8.23;;;;;;;-2.79;100.00;102150.39;1741269;81;21135;-85
2022/02/28 03:08:43;;;;;;;10.68;7.65;;;;;;;-2.83;100.00;102153.78;1769050;79;21515;-86
2022/02/28 03:11:11;;;;;;;12.63;8.35;;;;;;;-2.88;100.00;102151.21;1758546;81;21677;-86
2022/02/28 03:13:40;;;;;;;11.68;7.92;;;;;;;-2.93;100.00;102147.80;1771963;79;21054;-87
2022/02/28 03:16:08;;;;;;;11.15;8.00;;;;;;;-2.97;100.00;102153.70;1758863;81;21034;-86
2022/02/28 03:18:37;;;;;;;10.58;7.85;;;;;;;-3.01;100.00;102149.45;1733711;79;21063;-86
2022/02/28 03:21:04;;;;;;;9.90;7.58;;;;;;;-3.04;100.00;102152.80;1771529;81;21527;-86
2022/02/28 03:23:33;;;;;;;11.43;7.55;;;;;;;-3.08;100.00;102154.05;1771867;79;21012;-87
2022/02/28 03:26:01;;;;;;;11.12;7.55;;;;;;;-3.11;100.00;102145.13;1770128;79;21500;-87
2022/02/28 03:28:29;;;;;;;11.80;7.92;;;;;;;-3.14;100.00;102142.14;1772022;79;21011;-86
2022/02/28 03:30:56;;;;;;;11.85;7.75;;;;;;;-3.16;100.00;102147.64;1771968;79;21123;-85
2022/02/28 03:33:23;;;;;;;11.20;7.30;;;;;;;-3.19;100.00;102138.28;1732755;81;21572;-88
2022/02/28 03:35:50;;;;;;;11.10;7.28;;;;;;;-3.20;100.00;102147.17;1758723;81;21065;-87
2022/02/28 03:38:17;;;;;;;10.03;7.12;;;;;;;-3.23;100.00;102145.46;1726339;80;21085;-87
2022/02/28 03:40:45;;;;;;;10.45;7.67;;;;;;;-3.25;100.00;102137.38;1740889;81;21045;-87
2022/02/28 03:43:12;;;;;;;10.95;7.20;;;;;;;-3.26;100.00;102143.31;1740235;81;21215;-88
2022/02/28 03:45:58;;;;;;;10.25;7.22;;;;;;;-3.27;100.00;102133.55;1728383;82;21538;-87
2022/02/28 03:48:26;;;;;;;10.32;7.03;;;;;;;-3.27;100.00;102139.05;1739129;81;21085;-88
2022/02/28 03:51:04;;;;;;;11.12;6.95;;;;;;;-3.28;100.00;102136.07;1672185;84;21037;-87
2022/02/28 03:53:32;;;;;;;9.55;6.65;;;;;;;-3.29;100.00;102133.95;1728156;82;21022;-88
2022/02/28 03:56:00;;;;;;;11.12;7.50;;;;;;;-3.30;100.00;102135.23;1728157;82;21041;-87
2022/02/28 03:58:28;;;;;;;13.20;7.42;;;;;;;-3.32;100.00;102136.47;1704614;81;21042;-88
2022/02/28 04:00:55;;;;;;;11.83;6.78;;;;;;;-3.33;100.00;102139.45;1734675;81;21088;-86
2022/02/28 04:03:24;;;;;;;10.98;7.45;;;;;;;-3.33;100.00;102146.26;1749101;80;21081;-87
2022/02/28 04:05:51;;;;;;;9.63;6.28;;;;;;;-3.34;100.00;102144.55;1727851;82;21081;-87
2022/02/28 04:08:19;;;;;;;9.65;6.50;;;;;;;-3.35;100.00;102142.84;1749415;80;21151;-87
2022/02/28 04:10:46;;;;;;;8.58;6.37;;;;;;;-3.35;100.00;102145.38;1776642;78;21007;-88
2022/02/28 04:13:13;;;;;;;10.28;6.45;;;;;;;-3.38;100.00;102145.35;1770122;79;21339;-88
2022/02/28 04:15:41;;;;;;;11.08;7.72;;;;;;;-3.38;100.00;102144.95;1737692;82;21096;-87
2022/02/28 04:18:08;;;;;;;11.00;7.00;;;;;;;-3.38;100.00;102150.45;1742015;81;21511;-90
2022/02/28 04:20:41;;;;;;;9.28;6.53;;;;;;;-3.39;100.00;102145.78;1742129;82;21822;-88
2022/02/28 04:23:08;;;;;;;9.13;6.22;;;;;;;-3.39;100.00;102141.97;1741831;80;21026;-89
2022/02/28 04:25:35;;;;;;;10.43;7.20;;;;;;;-3.38;100.00;102142.41;1738185;81;21041;-88
2022/02/28 04:28:03;;;;;;;9.78;6.97;;;;;;;-3.38;100.00;102141.53;1737187;81;21648;-89
2022/02/28 04:30:30;;;;;;;9.80;6.85;;;;;;;-3.37;100.00;102138.14;1737183;82;21389;-88
2022/02/28 04:32:58;;;;;;;9.30;6.62;;;;;;;-3.37;100.00;102139.02;1702461;82;21198;-88
2022/02/28 04:35:25;;;;;;;12.20;7.87;;;;;;;-3.37;100.00;102136.47;1725995;81;21090;-89
2022/02/28 04:37:54;;;;;;;13.60;7.90;;;;;;;-3.36;100.00;102144.52;1721264;82;21032;-89
2022/02/28 04:40:22;;;;;;;9.45;6.90;;;;;;;-3.36;100.00;102140.69;1745126;82;21022;-89
2022/02/28 04:42:49;;;;;;;9.15;6.67;;;;;;;-3.34;100.00;102142.00;1745061;82;21864;-89
2022/02/28 04:45:17;;;;;;;9.70;6.55;;;;;;;-3.33;100.00;102148.37;1714843;82;22233;-89
2022/02/28 04:47:45;;;;;;;9.90;6.35;;;;;;;-3.33;100.00;102143.71;1744716;81;21086;-88
2022/02/28 04:50:32;;;;;;;11.20;6.87;;;;;;;-3.32;100.00;102149.21;1745205;82;21041;-87
2022/02/28 04:52:59;;;;;;;11.97;7.00;;;;;;;-3.31;100.00;102148.81;1745300;82;21081;-89
2022/02/28 04:55:26;;;;;;;11.93;8.15;;;;;;;-3.29;100.00;102154.78;1715322;82;21081;-89
2022/02/28 04:57:53;;;;;;;11.93;7.97;;;;;;;-3.30;100.00;102164.09;1744871;81;21847;-88
2022/02/28 05:00:22;;;;;;;12.03;7.58;;;;;;;-3.28;100.00;102155.18;1703071;82;21034;-90
2022/02/28 05:02:50;;;;;;;14.73;7.40;;;;;;;-3.25;100.00;102158.63;1736786;81;21065;-86
2022/02/28 05:05:22;;;;;;;10.95;7.35;;;;;;;-3.23;100.00;102158.20;1732260;82;21106;-88
2022/02/28 05:07:53;;;;;;;11.88;7.67;;;;;;;-3.19;100.00;102156.13;1669966;81;21065;-89
2022/02/28 05:10:21;;;;;;;11.25;6.95;;;;;;;-3.15;100.00;102158.27;1737189;82;21951;-89
2022/02/28 05:12:49;;;;;;;11.00;7.53;;;;;;;-3.13;100.00;102155.31;1723640;81;21458;-90
2022/02/28 05:15:16;;;;;;;17.15;9.30;;;;;;;-3.09;100.00;102152.37;1722033;81;21090;-92
2022/02/28 05:17:45;;;;;;;20.20;10.85;;;;;;;-3.04;100.00;102150.69;1736843;82;21046;-88
2022/02/28 05:20:13;;;;;;;23.55;12.35;;;;;;;-3.00;100.00;102142.20;1725810;81;21070;-91
2022/02/28 05:22:40;;;;;;;58.08;23.27;;;;;;;-2.95;100.00;102150.75;1708960;81;21169;-88
2022/02/28 05:25:08;;;;;;;28.95;15.30;;;;;;;-2.91;100.00;102144.81;1684513;82;21081;-89
2022/02/28 05:27:44;;;;;;;43.50;20.82;;;;;;;-2.87;100.00;102138.90;1707251;82;21073;-89
2022/02/28 05:30:13;;;;;;;38.40;18.67;;;;;;;-2.80;100.00;102141.47;1707076;84;21931;-88
2022/02/28 05:32:42;;;;;;;53.45;23.38;;;;;;;-2.74;100.00;102138.95;1661392;81;21053;-90
2022/02/28 05:35:27;;;;;;;20.95;12.50;;;;;;;-2.68;100.00;102139.41;1733895;82;21184;-90
2022/02/28 05:38:02;;;;;;;23.27;12.98;;;;;;;-2.60;100.00;102145.39;1732142;82;20999;-91
2022/02/28 05:40:30;;;;;;;14.47;9.05;;;;;;;-2.55;100.00;102138.59;1705655;82;21054;-90
2022/02/28 05:42:57;;;;;;;12.47;7.87;;;;;;;-2.49;100.00;102139.05;1708902;81;21516;-88
2022/02/28 05:45:25;;;;;;;13.80;7.70;;;;;;;-2.45;100.00;102139.07;1676903;84;21086;-87
2022/02/28 05:47:56;;;;;;;12.25;8.08;;;;;;;-2.41;100.00;102144.63;1703262;82;21018;-88
2022/02/28 05:50:23;;;;;;;15.50;8.63;;;;;;;-2.36;100.00;102139.52;1707443;83;21051;-88
2022/02/28 05:52:52;;;;;;;12.35;8.05;;;;;;;-2.30;100.00;102142.52;1696146;82;21034;-85
2022/02/28 05:55:19;;;;;;;15.15;8.05;;;;;;;-2.22;100.00;102144.27;1710144;81;21567;-87
2022/02/28 05:57:47;;;;;;;12.98;7.85;;;;;;;-2.10;100.00;102148.95;1727068;82;21042;-86
2022/02/28 06:00:15;;;;;;;17.48;7.95;;;;;;;-1.86;100.00;102147.29;1755318;79;21499;-85
2022/02/28 06:02:42;;;;;;;22.40;7.92;;;;;;;-1.64;100.00;102145.17;1757602;80;21029;-80
2022/02/28 06:05:09;;;;;;;13.50;7.80;;;;;;;-1.50;100.00;102149.45;1757610;80;21069;-80
2022/02/28 06:07:36;;;;;;;13.53;8.15;;;;;;;-1.44;100.00;102144.34;1756709;81;21077;-85
2022/02/28 06:10:04;;;;;;;13.20;8.48;;;;;;;-1.35;100.00;102151.14;1762381;78;21026;-81
2022/02/28 06:12:31;;;;;;;17.00;10.08;;;;;;;-1.33;100.00;102151.99;1787752;78;21818;-81
2022/02/28 06:14:58;;;;;;;14.15;7.95;;;;;;;-1.32;100.00;102153.70;1788087;80;21524;-81
2022/02/28 06:17:27;;;;;;;17.02;8.35;;;;;;;-1.30;100.00;102149.01;1786275;78;21567;-90
2022/02/28 06:19:54;;;;;;;10.98;7.25;;;;;;;-1.27;100.00;102150.70;1766637;79;21018;-89
2022/02/28 06:22:21;;;;;;;12.03;7.37;;;;;;;-1.08;100.00;102148.13;1755105;80;21013;-90
2022/02/28 06:24:49;;;;;;;10.75;7.47;;;;;;;-0.90;100.00;102135.72;1773812;78;21853;-90
2022/02/28 06:27:19;;;;;;;14.90;8.18;;;;;;;-0.85;100.00;102136.58;1757029;80;21042;-87
2022/02/28 06:29:46;;;;;;;11.35;6.70;;;;;;;-0.84;100.00;102142.13;1787929;78;21060;-85
2022/02/28 06:32:19;;;;;;;17.32;7.28;;;;;;;-0.86;100.00;102131.87;1783030;78;21170;-95
2022/02/28 06:34:56;;;;;;;12.58;7.62;;;;;;;-0.84;100.00;102131.89;1762783;78;21110;-89
2022/02/28 06:37:27;;;;;;;22.35;8.50;;;;;;;-0.70;100.00;102131.81;1777809;78;21164;-92
2022/02/28 06:39:55;;;;;;;31.62;8.60;;;;;;;-0.62;100.00;102130.09;1786826;78;21530;-92
2022/02/28 06:42:23;;;;;;;11.63;7.97;;;;;;;-0.49;100.00;102130.88;1771851;78;21852;-88
2022/02/28 06:44:50;;;;;;;13.45;7.60;;;;;;;-0.31;100.00;102136.33;1780075;78;21043;-88
2022/02/28 06:47:20;;;;;;;13.35;7.40;;;;;;;-0.27;100.00;102136.76;1744111;80;21914;-87
2022/02/28 06:49:52;;;;;;;11.93;7.60;;;;;;;-0.28;100.00;102135.05;1783254;78;21160;-87
2022/02/28 06:52:26;;;;;;;13.55;7.35;;;;;;;-0.33;100.00;102132.95;1786713;79;21032;-91
2022/02/28 06:54:55;;;;;;;17.55;7.90;;;;;;;-0.34;100.00;102141.05;1779005;78;21077;-90
2022/02/28 06:57:24;;;;;;;17.07;7.90;;;;;;;-0.29;100.00;102133.79;1780915;78;21871;-93
2022/02/28 06:59:55;;;;;;;11.28;7.50;;;;;;;-0.25;100.00;102140.17;1748529;78;21524;-87
2022/02/28 07:02:24;;;;;;;15.18;8.55;;;;;;;-0.24;100.00;102137.16;1774248;79;21160;-89
2022/02/28 07:04:55;;;;;;;30.52;12.60;;;;;;;-0.24;100.00;102141.00;1752325;81;21030;-85
2022/02/28 07:07:22;;;;;;;31.27;12.55;;;;;;;-0.27;100.00;102140.59;1770394;79;21141;-92
2022/02/28 07:09:50;;;;;;;21.57;10.43;;;;;;;-0.28;100.00;102137.61;1753407;79;21042;-91
2022/02/28 07:12:17;;;;;;;24.70;8.65;;;;;;;-0.18;100.00;102134.56;1758252;79;21484;-91
2022/02/28 07:14:44;;;;;;;18.27;7.40;;;;;;;-0.09;100.00;102124.71;1763497;79;21129;-94
2022/02/28 07:17:11;;;;;;;11.20;7.17;;;;;;;0.00;100.00;102122.09;1762701;79;21531;-91
2022/02/28 07:19:38;;;;;;;16.95;7.78;;;;;;;0.06;100.00;102112.21;1744583;81;21515;-91
2022/02/28 07:22:06;;;;;;;16.95;7.37;;;;;;;0.15;100.00;102114.71;1767071;79;21006;-91
2022/02/28 07:24:33;;;;;;;13.58;7.55;;;;;;;0.23;100.00;102112.94;1716091;81;21086;-93
2022/02/28 07:27:01;;;;;;;19.60;7.60;;;;;;;0.33;100.00;102110.31;1766163;80;21574;-93
2022/02/28 07:29:28;;;;;;;15.28;7.70;;;;;;;0.42;100.00;102114.08;1775117;80;21053;-90
2022/02/28 07:31:56;;;;;;;11.12;7.42;;;;;;;0.55;100.00;102107.97;1755708;79;21065;-92
2022/02/28 07:34:23;;;;;;;12.18;7.87;;;;;;;0.68;100.00;102108.71;1763634;79;21070;-90
2022/02/28 07:36:51;;;;;;;22.73;7.55;;;;;;;0.71;100.00;102109.98;1758946;79;21056;-90
2022/02/28 07:39:18;;;;;;;12.20;8.28;;;;;;;0.76;100.00;102117.63;1757046;80;21053;-90
2022/02/28 07:41:45;;;;;;;12.60;6.78;;;;;;;0.90;100.00;102108.06;1771208;81;21775;-90
2022/02/28 07:44:15;;;;;;;12.03;7.10;;;;;;;1.00;100.00;102116.50;1772073;81;21512;-93
2022/02/28 07:46:43;;;;;;;9.88;7.33;;;;;;;1.01;100.00;102114.77;1754013;79;21524;-91
2022/02/28 07:49:21;;;;;;;9.90;7.00;;;;;;;1.02;100.00;102108.78;1727448;82;21089;-94
2022/02/28 07:51:54;;;;;;;13.35;8.35;;;;;;;1.04;100.00;102107.89;1712271;82;21358;-90
2022/02/28 07:54:21;;;;;;;12.68;7.25;;;;;;;1.03;100.00;102110.06;1722441;80;21069;-93
2022/02/28 07:56:48;;;;;;;11.73;8.35;;;;;;;1.08;100.00;102104.89;1725345;80;21009;-87
2022/02/28 07:59:15;;;;;;;11.68;7.65;;;;;;;1.16;100.00;102115.05;1708363;82;21017;-86
2022/02/28 08:01:42;;;;;;;12.18;7.47;;;;;;;1.15;100.00;102103.95;1707911;82;20978;-86
2022/02/28 08:04:09;;;;;;;10.82;7.58;;;;;;;1.08;100.00;102095.91;1718437;80;21539;-85
2022/02/28 08:06:37;;;;;;;12.10;7.85;;;;;;;1.07;100.00;102096.77;1730172;81;21050;-86
2022/02/28 08:09:05;;;;;;;8.25;6.65;;;;;;;1.06;100.00;102097.19;1717201;80;21061;-86
2022/02/28 08:11:32;;;;;;;10.45;7.20;;;;;;;1.00;100.00;102098.99;1728837;80;21587;-85
2022/02/28 08:14:01;;;;;;;17.32;8.18;;;;;;;0.94;100.00;102103.30;1730338;80;21089;-87
2022/02/28 08:16:28;;;;;;;15.45;8.10;;;;;;;0.94;100.00;102099.45;1709403;81;21101;-87
2022/02/28 08:18:55;;;;;;;14.47;7.55;;;;;;;0.96;100.00;102098.59;1717235;81;21049;-86
2022/02/28 08:21:23;;;;;;;13.05;8.03;;;;;;;1.00;100.00;102093.86;1733540;81;21555;-87
2022/02/28 08:23:50;;;;;;;13.20;7.67;;;;;;;0.98;100.00;102097.70;1735674;81;21006;-88
2022/02/28 08:26:17;;;;;;;10.03;7.30;;;;;;;1.00;100.00;102097.70;1734468;81;21183;-86
2022/02/28 08:28:44;;;;;;;14.43;8.00;;;;;;;1.02;100.00;102096.82;1729593;81;21368;-87
2022/02/28 08:31:11;;;;;;;11.57;7.80;;;;;;;1.05;100.00;102103.18;1727967;81;20946;-88
2022/02/28 08:33:38;;;;;;;13.20;8.43;;;;;;;1.02;100.00;102096.82;1726680;81;20981;-88
2022/02/28 08:36:06;;;;;;;10.88;8.05;;;;;;;0.96;100.00;102102.44;1728557;81;21108;-88
2022/02/28 08:38:34;;;;;;;11.05;7.35;;;;;;;0.90;100.00;102105.50;1727337;81;21581;-87
2022/02/28 08:41:01;;;;;;;10.43;7.35;;;;;;;0.88;100.00;102111.52;1727385;81;21119;-85
2022/02/28 08:43:29;;;;;;;10.43;7.53;;;;;;;0.86;100.00;102115.36;1721403;81;21000;-89
2022/02/28 08:45:57;;;;;;;11.97;7.62;;;;;;;0.79;100.00;102115.01;1747149;81;21046;-90
2022/02/28 08:48:24;;;;;;;11.70;8.28;;;;;;;0.71;100.00;102118.08;1769963;80;21420;-87
2022/02/28 08:50:51;;;;;;;11.38;8.20;;;;;;;0.68;100.00;102114.28;1772302;80;21054;-85
2022/02/28 08:53:27;;;;;;;11.55;8.03;;;;;;;0.62;100.00;102114.74;1754320;79;21074;-88
2022/02/28 08:56:00;;;;;;;12.90;7.97;;;;;;;0.54;100.00;102122.09;1742534;81;20944;-85
2022/02/28 08:58:30;;;;;;;10.28;7.87;;;;;;;0.45;100.00;102117.47;1741181;81;21022;-84
2022/02/28 09:00:57;;;;;;;10.15;7.65;;;;;;;0.44;100.00;102117.48;1752761;80;21692;-84
2022/02/28 09:03:26;;;;;;;15.30;9.10;;;;;;;0.41;100.00;102122.63;1752350;80;21088;-83
2022/02/28 09:05:53;;;;;;;12.25;8.28;;;;;;;0.36;100.00;102123.11;1757914;80;21142;-84
2022/02/28 09:08:20;;;;;;;11.83;8.38;;;;;;;0.37;100.00;102125.66;1778547;80;21083;-84
2022/02/28 09:10:48;;;;;;;12.30;8.30;;;;;;;0.41;100.00;102123.47;1778216;80;21035;-85
2022/02/28 09:13:18;;;;;;;10.25;7.58;;;;;;;0.42;100.00;102125.62;1767624;80;21492;-83
2022/02/28 09:15:44;;;;;;;11.18;8.13;;;;;;;0.40;100.00;102122.20;1754409;80;21463;-86
2022/02/28 09:18:12;;;;;;;11.85;8.18;;;;;;;0.41;100.00;102122.63;1742293;81;21085;-86
2022/02/28 09:20:39;;;;;;;12.60;8.55;;;;;;;0.40;100.00;102111.95;1771855;79;21030;-85
2022/02/28 09:23:07;;;;;;;12.35;7.83;;;;;;;0.47;100.00;102114.88;1771624;79;21596;-85
2022/02/28 09:25:38;;;;;;;9.95;7.03;;;;;;;0.54;100.00;102106.27;1771405;79;22015;-84
2022/02/28 09:28:05;;;;;;;11.03;7.92;;;;;;;0.50;100.00;102112.30;1777406;79;21057;-84
2022/02/28 09:30:33;;;;;;;10.10;7.35;;;;;;;0.44;100.00;102109.80;1759779;79;21981;-84
2022/02/28 09:33:00;;;;;;;10.88;7.95;;;;;;;0.34;100.00;102110.29;1708506;82;21011;-85
2022/02/28 09:35:29;;;;;;;12.07;8.68;;;;;;;0.27;100.00;102110.79;1733881;81;21006;-84
2022/02/28 09:38:01;;;;;;;10.70;7.72;;;;;;;0.27;100.00;102100.55;1701494;82;21732;-81
2022/02/28 09:40:53;;;;;;;11.38;7.75;;;;;;;0.30;100.00;102102.22;1697283;83;21058;-82
2022/02/28 09:43:47;;;;;;;11.18;7.22;;;;;;;0.26;100.00;102100.53;1665882;85;21234;-84
2022/02/28 09:46:18;;;;;;;10.88;7.72;;;;;;;0.22;100.00;102109.95;1656745;85;21063;-82
2022/02/28 09:48:57;;;;;;;11.40;7.28;;;;;;;0.12;100.00;102107.07;1618318;86;21136;-87
2022/02/28 09:51:43;;;;;;;11.28;8.08;;;;;;;0.14;100.00;102102.76;1630160;86;21071;-88
2022/02/28 09:54:29;;;;;;;8.45;7.08;;;;;;;0.13;100.00;102100.64;1580618;89;21235;-88
2022/02/28 09:57:27;;;;;;;9.55;6.85;;;;;;;0.19;100.00;102099.75;1634997;86;21179;-86
2022/02/28 09:59:50;;;;;;;9.05;7.30;;;;;;;0.23;100.00;102097.57;1636307;87;21641;-86
2022/02/28 10:02:19;;;;;;;8.63;7.55;;;;;;;0.21;100.00;102101.84;1632394;86;21140;-87
2022/02/28 10:04:48;;;;;;;9.05;6.90;;;;;;;0.16;100.00;102095.92;1628743;86;21522;-87
2022/02/28 10:07:25;;;;;;;11.33;6.30;;;;;;;0.12;100.00;102096.38;1611890;87;21054;-88
2022/02/28 10:10:13;;;;;;;9.63;6.97;;;;;;;0.09;100.00;102100.23;1580911;88;21093;-88
2022/02/28 10:12:42;;;;;;;9.98;7.37;;;;;;;0.06;100.00;102090.44;1602608;87;21789;-87
2022/02/28 10:15:15;;;;;;;7.75;6.47;;;;;;;0.07;100.00;102089.58;1607055;86;21970;-87
2022/02/28 10:17:56;;;;;;;11.15;7.53;;;;;;;0.12;100.00;102095.55;1612245;85;22273;-87
2022/02/28 10:20:33;;;;;;;;;;;;;;;0.12;100.00;102097.66;1616886;86;21047;-87
2022/02/28 10:23:23;;;;;;;;;;;;;;;;;;;;;
2022/02/28 10:25:51;;;;;;;11.10;7.80;;;;;;;0.21;100.00;102098.00;1606978;88;21152;-94
2022/02/28 10:28:38;;;;;;;11.38;7.78;;;;;;;0.24;100.00;102092.87;1599118;87;21196;-94
2022/02/28 10:31:25;;;;;;;16.67;7.90;;;;;;;0.27;100.00;102088.14;1629823;85;21139;-91
2022/02/28 10:33:56;;;;;;;9.58;6.95;;;;;;;0.30;100.00;102091.53;1625544;86;21095;-90
2022/02/28 10:36:53;;;;;;;38.70;9.08;;;;;;;0.36;100.00;102089.80;1622367;87;21229;-91
2022/02/28 10:39:29;;;;;;;11.38;6.80;;;;;;;0.41;100.00;102087.59;1574029;88;21112;-88
2022/02/28 10:42:15;;;;;;;8.35;6.28;;;;;;;0.54;100.00;102093.45;1593029;88;21683;-89
2022/02/28 10:44:42;;;;;;;9.15;6.67;;;;;;;0.48;100.00;102090.12;1643795;86;21049;-91
2022/02/28 10:47:14;;;;;;;9.68;7.20;;;;;;;0.38;100.00;102090.61;1671236;85;21142;-92
2022/02/28 10:49:43;;;;;;;10.90;7.00;;;;;;;0.32;100.00;102086.41;1624384;86;21118;-91
2022/02/28 10:52:14;;;;;;;9.88;7.05;;;;;;;0.28;100.00;102079.16;1618538;86;21073;-89
2022/02/28 10:54:46;;;;;;;11.22;7.08;;;;;;;0.25;100.00;102085.60;1623574;86;21104;-89
2022/02/28 10:57:23;;;;;;;14.70;7.72;;;;;;;0.21;100.00;102080.52;1610914;88;21092;-91
2022/02/28 10:59:56;;;;;;;10.72;6.90;;;;;;;0.23;100.00;102078.80;1633893;86;21173;-91
2022/02/28 11:02:32;;;;;;;7.55;5.92;;;;;;;0.25;100.00;102078.33;1666594;84;21826;-88
2022/02/28 11:05:17;;;;;;;10.35;7.42;;;;;;;0.21;100.00;102071.55;1621477;86;21114;-91
2022/02/28 11:07:48;;;;;;;13.50;6.95;;;;;;;0.15;100.00;102070.75;1652071;86;21101;-90
2022/02/28 11:10:19;;;;;;;11.08;7.17;;;;;;;0.14;100.00;102069.45;1650876;86;21695;-91
2022/02/28 11:12:50;;;;;;;15.25;8.38;;;;;;;0.16;100.00;102066.46;1666149;84;21092;-91
2022/02/28 11:15:25;;;;;;;10.58;7.47;;;;;;;0.14;100.00;102068.17;1679734;84;22454;-90
2022/02/28 11:17:54;;;;;;;10.10;7.65;;;;;;;0.14;100.00;102066.89;1565100;88;21121;-90
2022/02/28 11:20:22;;;;;;;10.43;7.70;;;;;;;0.12;100.00;102072.04;1636448;86;21091;-91
2022/02/28 11:22:52;;;;;;;9.20;6.58;;;;;;;0.12;100.00;102066.91;1634918;85;21343;-90
2022/02/28 11:25:24;;;;;;;9.50;7.10;;;;;;;0.11;100.00;102065.22;1659684;85;21120;-89